Terminal Aerodrome Forecast
Issued by NWS Brownsville, TX

Home | Current Version | Previous Version | Text Only | Print | Product List | Glossary On
Versions: 1 2 3 4 5 6 7 8 9 10 11 12 13 14 15
496
FTUS44 KBRO 121413 AAB
TAFBRO
TAF AMD
KBRO 121413Z 1214/1312 16004KT 3SM BR SCT006
     FM121500 17013G19KT P6SM SCT050
     FM130200 14005KT P6SM FEW250
     FM130600 VRB03KT P6SM FEW250=

USA.gov is the U.S. government's official web portal to all federal, state and local government web resources and services.